sensor_id;sensor_type;location;lat;lon;timestamp;pressure;altitude;pressure_sealevel;temperature;humidity
6208;BME280;3137;51.550;7.060;2023-05-21T00:01:22;76863.56;;;-145.94;56.86
6208;BME280;3137;51.550;7.060;2023-05-21T00:03:49;76863.56;;;-145.94;57.19
6208;BME280;3137;51.550;7.060;2023-05-21T00:06:16;76867.63;;;-145.94;57.08
6208;BME280;3137;51.550;7.060;2023-05-21T00:08:42;76871.72;;;-145.94;57.23
6208;BME280;3137;51.550;7.060;2023-05-21T00:11:09;76867.63;;;-145.94;57.26
6208;BME280;3137;51.550;7.060;2023-05-21T00:13:35;76871.72;;;-145.94;57.08
6208;BME280;3137;51.550;7.060;2023-05-21T00:16:02;76871.72;;;-145.94;57.26
6208;BME280;3137;51.550;7.060;2023-05-21T00:18:28;76873.75;;;-145.94;57.13
6208;BME280;3137;51.550;7.060;2023-05-21T00:20:57;76873.75;;;-145.94;57.23
6208;BME280;3137;51.550;7.060;2023-05-21T00:23:24;76871.72;;;-145.94;57.48
6208;BME280;3137;51.550;7.060;2023-05-21T00:25:52;76867.63;;;-145.94;57.42
6208;BME280;3137;51.550;7.060;2023-05-21T00:28:18;76871.72;;;-145.94;57.47
6208;BME280;3137;51.550;7.060;2023-05-21T00:30:45;76867.63;;;-145.94;57.43
6208;BME280;3137;51.550;7.060;2023-05-21T00:33:12;76869.66;;;-145.94;57.44
6208;BME280;3137;51.550;7.060;2023-05-21T00:35:39;76867.63;;;-145.94;57.63
6208;BME280;3137;51.550;7.060;2023-05-21T00:38:05;76873.75;;;-145.94;57.23
6208;BME280;3137;51.550;7.060;2023-05-21T00:40:34;76877.81;;;-145.94;57.51
6208;BME280;3137;51.550;7.060;2023-05-21T00:43:01;76877.81;;;-145.94;57.33
6208;BME280;3137;51.550;7.060;2023-05-21T00:45:27;76869.66;;;-145.94;57.34
6208;BME280;3137;51.550;7.060;2023-05-21T00:47:55;76871.72;;;-145.94;57.54
6208;BME280;3137;51.550;7.060;2023-05-21T00:50:22;76859.47;;;-145.94;57.43
6208;BME280;3137;51.550;7.060;2023-05-21T00:52:48;76867.63;;;-145.94;57.66
6208;BME280;3137;51.550;7.060;2023-05-21T00:55:15;76873.75;;;-145.94;57.47
6208;BME280;3137;51.550;7.060;2023-05-21T00:57:43;76869.66;;;-145.94;57.63
6208;BME280;3137;51.550;7.060;2023-05-21T01:00:13;76875.78;;;-145.94;57.61
6208;BME280;3137;51.550;7.060;2023-05-21T01:02:39;76873.75;;;-145.94;57.95
6208;BME280;3137;51.550;7.060;2023-05-21T01:05:08;76871.72;;;-145.94;57.88
6208;BME280;3137;51.550;7.060;2023-05-21T01:07:37;76873.75;;;-145.94;57.78
6208;BME280;3137;51.550;7.060;2023-05-21T01:10:06;76865.59;;;-145.94;57.57
6208;BME280;3137;51.550;7.060;2023-05-21T01:12:34;76867.63;;;-145.94;57.74
6208;BME280;3137;51.550;7.060;2023-05-21T01:15:01;76871.72;;;-145.94;58.03
6208;BME280;3137;51.550;7.060;2023-05-21T01:17:29;76867.63;;;-145.94;57.93
6208;BME280;3137;51.550;7.060;2023-05-21T01:19:57;76865.59;;;-145.94;57.96
6208;BME280;3137;51.550;7.060;2023-05-21T01:22:27;76865.59;;;-145.94;58.07
6208;BME280;3137;51.550;7.060;2023-05-21T01:24:56;76869.66;;;-145.94;58.14
6208;BME280;3137;51.550;7.060;2023-05-21T01:27:22;76867.63;;;-145.94;58.03
6208;BME280;3137;51.550;7.060;2023-05-21T01:29:49;76869.66;;;-145.94;57.94
6208;BME280;3137;51.550;7.060;2023-05-21T01:32:37;76873.75;;;-145.94;58.10
6208;BME280;3137;51.550;7.060;2023-05-21T01:35:19;76869.66;;;-145.94;57.93
6208;BME280;3137;51.550;7.060;2023-05-21T01:37:52;76875.78;;;-145.94;58.16
6208;BME280;3137;51.550;7.060;2023-05-21T01:40:25;76875.78;;;-145.94;58.05
6208;BME280;3137;51.550;7.060;2023-05-21T01:42:53;76871.72;;;-145.94;58.16
6208;BME280;3137;51.550;7.060;2023-05-21T01:45:21;76873.75;;;-145.94;58.38
6208;BME280;3137;51.550;7.060;2023-05-21T01:47:50;76875.78;;;-145.94;58.27
6208;BME280;3137;51.550;7.060;2023-05-21T01:50:22;76873.75;;;-145.94;58.40
6208;BME280;3137;51.550;7.060;2023-05-21T01:52:55;76883.94;;;-145.94;58.51
6208;BME280;3137;51.550;7.060;2023-05-21T01:55:23;76881.91;;;-145.94;58.63
6208;BME280;3137;51.550;7.060;2023-05-21T01:57:51;76879.88;;;-145.94;58.55
6208;BME280;3137;51.550;7.060;2023-05-21T02:00:23;76881.91;;;-145.94;58.67
6208;BME280;3137;51.550;7.060;2023-05-21T02:02:50;76881.91;;;-145.94;58.65
6208;BME280;3137;51.550;7.060;2023-05-21T02:05:17;76871.72;;;-145.94;58.49
6208;BME280;3137;51.550;7.060;2023-05-21T02:07:44;76873.75;;;-145.94;58.69
6208;BME280;3137;51.550;7.060;2023-05-21T02:10:11;76871.72;;;-145.94;58.60
6208;BME280;3137;51.550;7.060;2023-05-21T02:12:38;76873.75;;;-145.94;58.72
6208;BME280;3137;51.550;7.060;2023-05-21T02:15:05;76879.88;;;-145.94;58.83
6208;BME280;3137;51.550;7.060;2023-05-21T02:17:31;76867.63;;;-145.94;58.77
6208;BME280;3137;51.550;7.060;2023-05-21T02:20:00;76875.78;;;-145.94;58.85
6208;BME280;3137;51.550;7.060;2023-05-21T02:22:46;76879.88;;;-145.94;58.78
6208;BME280;3137;51.550;7.060;2023-05-21T02:25:14;76875.78;;;-145.94;58.96
6208;BME280;3137;51.550;7.060;2023-05-21T02:27:42;76875.78;;;-145.94;59.00
6208;BME280;3137;51.550;7.060;2023-05-21T02:30:10;76877.81;;;-145.94;58.78
6208;BME280;3137;51.550;7.060;2023-05-21T02:32:38;76877.81;;;-145.94;59.14
6208;BME280;3137;51.550;7.060;2023-05-21T02:35:09;76881.91;;;-145.94;59.19
6208;BME280;3137;51.550;7.060;2023-05-21T02:37:36;76885.97;;;-145.94;59.01
6208;BME280;3137;51.550;7.060;2023-05-21T02:40:06;76885.97;;;-145.94;59.02
6208;BME280;3137;51.550;7.060;2023-05-21T02:42:33;76879.88;;;-145.94;59.00
6208;BME280;3137;51.550;7.060;2023-05-21T02:44:59;76892.09;;;-145.94;59.44
6208;BME280;3137;51.550;7.060;2023-05-21T02:47:26;76894.13;;;-145.94;59.36
6208;BME280;3137;51.550;7.060;2023-05-21T02:49:52;76892.09;;;-145.94;59.30
6208;BME280;3137;51.550;7.060;2023-05-21T02:52:20;76890.06;;;-145.94;59.61
6208;BME280;3137;51.550;7.060;2023-05-21T02:54:47;76898.22;;;-145.94;59.66
6208;BME280;3137;51.550;7.060;2023-05-21T02:57:14;76900.25;;;-145.94;59.69
6208;BME280;3137;51.550;7.060;2023-05-21T02:59:40;76900.25;;;-145.94;59.57
6208;BME280;3137;51.550;7.060;2023-05-21T03:02:07;76896.19;;;-145.94;59.64
6208;BME280;3137;51.550;7.060;2023-05-21T03:04:33;76898.22;;;-145.94;59.53
6208;BME280;3137;51.550;7.060;2023-05-21T03:07:04;76898.22;;;-145.94;59.73
6208;BME280;3137;51.550;7.060;2023-05-21T03:09:31;76900.25;;;-145.94;59.52
6208;BME280;3137;51.550;7.060;2023-05-21T03:11:57;76906.38;;;-145.94;59.94
6208;BME280;3137;51.550;7.060;2023-05-21T03:14:24;76906.38;;;-145.94;59.73
6208;BME280;3137;51.550;7.060;2023-05-21T03:16:50;76906.38;;;-145.94;59.82
6208;BME280;3137;51.550;7.060;2023-05-21T03:19:17;76910.47;;;-145.94;59.81
6208;BME280;3137;51.550;7.060;2023-05-21T03:21:43;76910.47;;;-145.94;59.95
6208;BME280;3137;51.550;7.060;2023-05-21T03:24:10;76912.50;;;-145.94;59.83
6208;BME280;3137;51.550;7.060;2023-05-21T03:26:38;76918.63;;;-145.94;59.97
6208;BME280;3137;51.550;7.060;2023-05-21T03:29:05;76914.53;;;-145.94;60.21
6208;BME280;3137;51.550;7.060;2023-05-21T03:31:34;76916.56;;;-145.94;60.41
6208;BME280;3137;51.550;7.060;2023-05-21T03:34:09;76920.66;;;-145.94;60.36
6208;BME280;3137;51.550;7.060;2023-05-21T03:36:35;76918.63;;;-145.94;60.28
6208;BME280;3137;51.550;7.060;2023-05-21T03:39:02;76918.63;;;-145.94;60.47
6208;BME280;3137;51.550;7.060;2023-05-21T03:41:31;76922.69;;;-145.94;60.62
6208;BME280;3137;51.550;7.060;2023-05-21T03:44:05;76918.63;;;-145.94;60.55
6208;BME280;3137;51.550;7.060;2023-05-21T03:46:43;76924.72;;;-145.94;60.70
6208;BME280;3137;51.550;7.060;2023-05-21T03:49:19;76922.69;;;-145.94;60.75
6208;BME280;3137;51.550;7.060;2023-05-21T03:51:47;76922.69;;;-145.94;60.74
6208;BME280;3137;51.550;7.060;2023-05-21T03:54:16;76928.81;;;-145.94;60.79
6208;BME280;3137;51.550;7.060;2023-05-21T03:56:43;76924.72;;;-145.94;60.91
6208;BME280;3137;51.550;7.060;2023-05-21T03:59:10;76928.81;;;-145.94;60.78
6208;BME280;3137;51.550;7.060;2023-05-21T04:01:36;76928.81;;;-145.94;60.74
6208;BME280;3137;51.550;7.060;2023-05-21T04:04:05;76924.72;;;-145.94;61.05
6208;BME280;3137;51.550;7.060;2023-05-21T04:06:32;76928.81;;;-145.94;61.05
6208;BME280;3137;51.550;7.060;2023-05-21T04:08:58;76928.81;;;-145.94;60.82
6208;BME280;3137;51.550;7.060;2023-05-21T04:11:25;76936.97;;;-145.94;60.89
6208;BME280;3137;51.550;7.060;2023-05-21T04:13:51;76939.00;;;-145.94;60.92
6208;BME280;3137;51.550;7.060;2023-05-21T04:16:18;76930.84;;;-145.94;61.03
6208;BME280;3137;51.550;7.060;2023-05-21T04:18:45;76936.97;;;-145.94;61.20
6208;BME280;3137;51.550;7.060;2023-05-21T04:21:13;76936.97;;;-145.94;61.07
6208;BME280;3137;51.550;7.060;2023-05-21T04:23:40;76939.00;;;-145.94;61.29
6208;BME280;3137;51.550;7.060;2023-05-21T04:26:14;76934.94;;;-145.94;61.04
6208;BME280;3137;51.550;7.060;2023-05-21T04:28:41;76936.97;;;-145.94;61.22
6208;BME280;3137;51.550;7.060;2023-05-21T04:31:08;76941.03;;;-145.94;61.52
6208;BME280;3137;51.550;7.060;2023-05-21T04:33:34;76936.97;;;-145.94;61.20
6208;BME280;3137;51.550;7.060;2023-05-21T04:36:01;76936.97;;;-145.94;61.66
6208;BME280;3137;51.550;7.060;2023-05-21T04:38:29;76934.94;;;-145.94;61.70
6208;BME280;3137;51.550;7.060;2023-05-21T04:40:55;76928.81;;;-145.94;61.28
6208;BME280;3137;51.550;7.060;2023-05-21T04:43:23;76928.81;;;-145.94;61.53
6208;BME280;3137;51.550;7.060;2023-05-21T04:45:55;76930.84;;;-145.94;61.23
6208;BME280;3137;51.550;7.060;2023-05-21T04:48:25;76928.81;;;-145.94;61.56
6208;BME280;3137;51.550;7.060;2023-05-21T04:50:54;76941.03;;;-145.94;61.62
6208;BME280;3137;51.550;7.060;2023-05-21T04:53:22;76936.97;;;-145.94;61.52
6208;BME280;3137;51.550;7.060;2023-05-21T04:55:51;76928.81;;;-145.94;61.92
6208;BME280;3137;51.550;7.060;2023-05-21T04:58:18;76934.94;;;-145.94;61.61
6208;BME280;3137;51.550;7.060;2023-05-21T05:00:45;76928.81;;;-145.94;61.66
6208;BME280;3137;51.550;7.060;2023-05-21T05:03:13;76924.72;;;-145.94;61.65
6208;BME280;3137;51.550;7.060;2023-05-21T05:05:42;76922.69;;;-145.94;61.72
6208;BME280;3137;51.550;7.060;2023-05-21T05:08:08;76912.50;;;-145.94;61.93
6208;BME280;3137;51.550;7.060;2023-05-21T05:10:35;76912.50;;;-145.94;61.91
6208;BME280;3137;51.550;7.060;2023-05-21T05:13:02;76912.50;;;-145.94;61.70
6208;BME280;3137;51.550;7.060;2023-05-21T05:15:28;76906.38;;;-145.94;61.65
6208;BME280;3137;51.550;7.060;2023-05-21T05:17:55;76920.66;;;-145.94;61.89
6208;BME280;3137;51.550;7.060;2023-05-21T05:20:22;76912.50;;;-145.94;62.05
6208;BME280;3137;51.550;7.060;2023-05-21T05:22:49;76908.41;;;-145.94;61.95
6208;BME280;3137;51.550;7.060;2023-05-21T05:25:16;76906.38;;;-145.94;62.20
6208;BME280;3137;51.550;7.060;2023-05-21T05:27:43;76898.22;;;-145.94;62.32
6208;BME280;3137;51.550;7.060;2023-05-21T05:30:10;76896.19;;;-145.94;62.15
6208;BME280;3137;51.550;7.060;2023-05-21T05:32:36;76898.22;;;-145.94;62.13
6208;BME280;3137;51.550;7.060;2023-05-21T05:35:04;76894.13;;;-145.94;62.09
6208;BME280;3137;51.550;7.060;2023-05-21T05:37:31;76892.09;;;-145.94;61.95
6208;BME280;3137;51.550;7.060;2023-05-21T05:39:58;76881.91;;;-145.94;62.17
6208;BME280;3137;51.550;7.060;2023-05-21T05:42:26;76877.81;;;-145.94;62.15
6208;BME280;3137;51.550;7.060;2023-05-21T05:44:52;76877.81;;;-145.94;62.06
6208;BME280;3137;51.550;7.060;2023-05-21T05:47:19;76871.72;;;-145.94;62.10
6208;BME280;3137;51.550;7.060;2023-05-21T05:49:47;76867.63;;;-145.94;61.95
6208;BME280;3137;51.550;7.060;2023-05-21T05:52:13;76863.56;;;-145.94;61.89
6208;BME280;3137;51.550;7.060;2023-05-21T05:54:40;76857.44;;;-145.94;62.05
6208;BME280;3137;51.550;7.060;2023-05-21T05:57:07;76855.41;;;-145.94;61.94
6208;BME280;3137;51.550;7.060;2023-05-21T05:59:34;76843.16;;;-145.94;61.73
6208;BME280;3137;51.550;7.060;2023-05-21T06:02:03;76843.16;;;-145.94;62.06
6208;BME280;3137;51.550;7.060;2023-05-21T06:04:30;76845.19;;;-145.94;61.84
6208;BME280;3137;51.550;7.060;2023-05-21T06:06:56;76841.13;;;-145.94;61.94
6208;BME280;3137;51.550;7.060;2023-05-21T06:09:23;76835.00;;;-145.94;61.90
6208;BME280;3137;51.550;7.060;2023-05-21T06:11:50;76824.81;;;-145.94;61.50
6208;BME280;3137;51.550;7.060;2023-05-21T06:14:16;76826.84;;;-145.94;61.75
6208;BME280;3137;51.550;7.060;2023-05-21T06:16:43;76816.66;;;-145.94;61.89
6208;BME280;3137;51.550;7.060;2023-05-21T06:19:09;76812.56;;;-145.94;61.53
6208;BME280;3137;51.550;7.060;2023-05-21T06:21:36;76812.56;;;-145.94;61.68
6208;BME280;3137;51.550;7.060;2023-05-21T06:24:04;76810.53;;;-145.94;61.73
6208;BME280;3137;51.550;7.060;2023-05-21T06:26:30;76806.47;;;-145.94;61.88
6208;BME280;3137;51.550;7.060;2023-05-21T06:28:58;76802.38;;;-145.94;61.59
6208;BME280;3137;51.550;7.060;2023-05-21T06:31:24;76802.38;;;-145.94;61.77
6208;BME280;3137;51.550;7.060;2023-05-21T06:33:52;76812.56;;;-145.94;61.79
6208;BME280;3137;51.550;7.060;2023-05-21T06:36:19;76806.47;;;-145.94;61.79
6208;BME280;3137;51.550;7.060;2023-05-21T06:38:46;76808.50;;;-145.94;61.62
6208;BME280;3137;51.550;7.060;2023-05-21T06:41:13;76798.31;;;-145.94;61.42
6208;BME280;3137;51.550;7.060;2023-05-21T06:43:52;76800.34;;;-145.94;61.55
6208;BME280;3137;51.550;7.060;2023-05-21T06:46:37;76784.03;;;-145.94;61.42
6208;BME280;3137;51.550;7.060;2023-05-21T06:49:06;76773.81;;;-145.94;61.59
6208;BME280;3137;51.550;7.060;2023-05-21T06:51:33;76769.75;;;-145.94;61.63
6208;BME280;3137;51.550;7.060;2023-05-21T06:54:01;76767.72;;;-145.94;61.71
6208;BME280;3137;51.550;7.060;2023-05-21T06:56:27;76755.47;;;-145.94;61.26
6208;BME280;3137;51.550;7.060;2023-05-21T06:58:54;76751.41;;;-145.94;61.40
6208;BME280;3137;51.550;7.060;2023-05-21T07:01:22;76739.16;;;-145.94;61.30
6208;BME280;3137;51.550;7.060;2023-05-21T07:03:48;76733.03;;;-145.94;61.15
6208;BME280;3137;51.550;7.060;2023-05-21T07:06:15;76724.88;;;-145.94;61.60
6208;BME280;3137;51.550;7.060;2023-05-21T07:08:42;76706.53;;;-145.94;61.27
6208;BME280;3137;51.550;7.060;2023-05-21T07:11:08;76696.34;;;-145.94;60.69
6208;BME280;3137;51.550;7.060;2023-05-21T07:13:35;76684.09;;;-145.94;60.98
6208;BME280;3137;51.550;7.060;2023-05-21T07:16:02;76667.78;;;-145.94;60.58
6208;BME280;3137;51.550;7.060;2023-05-21T07:18:29;76667.78;;;-145.94;60.67
6208;BME280;3137;51.550;7.060;2023-05-21T07:20:56;76675.94;;;-145.94;60.08
6208;BME280;3137;51.550;7.060;2023-05-21T07:23:23;76661.69;;;-145.94;59.67
6208;BME280;3137;51.550;7.060;2023-05-21T07:25:50;76653.53;;;-145.94;59.83
6208;BME280;3137;51.550;7.060;2023-05-21T07:28:17;76659.63;;;-145.94;59.81
6208;BME280;3137;51.550;7.060;2023-05-21T07:30:44;76645.38;;;-145.94;59.90
6208;BME280;3137;51.550;7.060;2023-05-21T07:33:14;76635.16;;;-145.94;59.90
6208;BME280;3137;51.550;7.060;2023-05-21T07:35:41;76614.78;;;-145.94;59.64
6208;BME280;3137;51.550;7.060;2023-05-21T07:38:08;76596.44;;;-145.94;60.11
6208;BME280;3137;51.550;7.060;2023-05-21T07:40:34;76574.00;;;-145.94;60.02
6208;BME280;3137;51.550;7.060;2023-05-21T07:43:02;76561.75;;;-145.94;59.25
6208;BME280;3137;51.550;7.060;2023-05-21T07:45:29;76549.53;;;-145.94;59.06
6208;BME280;3137;51.550;7.060;2023-05-21T07:47:56;76537.28;;;-145.94;58.44
6208;BME280;3137;51.550;7.060;2023-05-21T07:50:24;76537.28;;;-145.94;58.60
6208;BME280;3137;51.550;7.060;2023-05-21T07:52:51;76529.13;;;-145.94;58.63
6208;BME280;3137;51.550;7.060;2023-05-21T07:55:18;76516.91;;;-145.94;57.83
6208;BME280;3137;51.550;7.060;2023-05-21T07:57:45;76510.78;;;-145.94;58.01
6208;BME280;3137;51.550;7.060;2023-05-21T08:00:14;76496.50;;;-145.94;58.12
6208;BME280;3137;51.550;7.060;2023-05-21T08:02:45;76480.19;;;-145.94;58.58
6208;BME280;3137;51.550;7.060;2023-05-21T08:05:13;76472.03;;;-145.94;58.18
6208;BME280;3137;51.550;7.060;2023-05-21T08:07:42;76457.78;;;-145.94;58.05
6208;BME280;3137;51.550;7.060;2023-05-21T08:10:08;76467.97;;;-145.94;57.57
6208;BME280;3137;51.550;7.060;2023-05-21T08:12:35;76457.78;;;-145.94;56.85
6208;BME280;3137;51.550;7.060;2023-05-21T08:15:03;76455.72;;;-145.94;56.56
6208;BME280;3137;51.550;7.060;2023-05-21T08:17:31;76445.53;;;-145.94;56.95
6208;BME280;3137;51.550;7.060;2023-05-21T08:19:58;76449.63;;;-145.94;56.92
6208;BME280;3137;51.550;7.060;2023-05-21T08:22:26;76449.63;;;-145.94;56.53
6208;BME280;3137;51.550;7.060;2023-05-21T08:24:53;76445.53;;;-145.94;56.51
6208;BME280;3137;51.550;7.060;2023-05-21T08:27:19;76441.47;;;-145.94;57.10
6208;BME280;3137;51.550;7.060;2023-05-21T08:29:46;76443.50;;;-145.94;56.49
6208;BME280;3137;51.550;7.060;2023-05-21T08:32:12;76451.66;;;-145.94;56.21
6208;BME280;3137;51.550;7.060;2023-05-21T08:34:39;76457.78;;;-145.94;56.53
6208;BME280;3137;51.550;7.060;2023-05-21T08:37:20;76453.69;;;-145.94;56.57
6208;BME280;3137;51.550;7.060;2023-05-21T08:40:04;76431.28;;;-145.94;57.63
6208;BME280;3137;51.550;7.060;2023-05-21T08:42:44;76419.03;;;-145.94;57.06
6208;BME280;3137;51.550;7.060;2023-05-21T08:45:20;76419.03;;;-145.94;56.82
6208;BME280;3137;51.550;7.060;2023-05-21T08:47:55;76414.94;;;-145.94;56.51
6208;BME280;3137;51.550;7.060;2023-05-21T08:50:30;76394.56;;;-145.94;56.71
6208;BME280;3137;51.550;7.060;2023-05-21T08:53:00;76388.44;;;-145.94;56.67
6208;BME280;3137;51.550;7.060;2023-05-21T08:55:35;76382.34;;;-145.94;56.70
6208;BME280;3137;51.550;7.060;2023-05-21T08:58:04;76359.91;;;-145.94;55.60
6208;BME280;3137;51.550;7.060;2023-05-21T09:00:31;76361.94;;;-145.94;55.48
6208;BME280;3137;51.550;7.060;2023-05-21T09:02:59;76363.97;;;-145.94;55.85
6208;BME280;3137;51.550;7.060;2023-05-21T09:05:31;76347.66;;;-145.94;55.56
6208;BME280;3137;51.550;7.060;2023-05-21T09:08:04;76341.56;;;-145.94;54.70
6208;BME280;3137;51.550;7.060;2023-05-21T09:10:51;76331.34;;;-145.94;54.74
6208;BME280;3137;51.550;7.060;2023-05-21T09:13:21;76321.16;;;-145.94;54.65
6208;BME280;3137;51.550;7.060;2023-05-21T09:15:50;76310.97;;;-145.94;54.38
6208;BME280;3137;51.550;7.060;2023-05-21T09:18:18;76300.78;;;-145.94;54.68
6208;BME280;3137;51.550;7.060;2023-05-21T09:20:52;76302.81;;;-145.94;54.11
6208;BME280;3137;51.550;7.060;2023-05-21T09:23:19;76288.53;;;-145.94;54.84
6208;BME280;3137;51.550;7.060;2023-05-21T09:25:47;76290.59;;;-145.94;55.53
6208;BME280;3137;51.550;7.060;2023-05-21T09:28:21;76280.38;;;-145.94;54.56
6208;BME280;3137;51.550;7.060;2023-05-21T09:30:51;76280.38;;;-145.94;54.01
6208;BME280;3137;51.550;7.060;2023-05-21T09:33:26;76268.16;;;-145.94;54.19
6208;BME280;3137;51.550;7.060;2023-05-21T09:35:54;76268.16;;;-145.94;54.07
6208;BME280;3137;51.550;7.060;2023-05-21T09:38:24;76260.00;;;-145.94;54.46
6208;BME280;3137;51.550;7.060;2023-05-21T09:40:53;76229.41;;;-145.94;54.93
6208;BME280;3137;51.550;7.060;2023-05-21T09:43:21;76217.19;;;-145.94;54.16
6208;BME280;3137;51.550;7.060;2023-05-21T09:45:52;76198.81;;;-145.94;53.81
6208;BME280;3137;51.550;7.060;2023-05-21T09:48:34;76184.56;;;-145.94;53.07
6208;BME280;3137;51.550;7.060;2023-05-21T09:53:33;76162.13;;;-145.94;53.34
6208;BME280;3137;51.550;7.060;2023-05-21T09:55:59;76149.91;;;-145.94;53.21
6208;BME280;3137;51.550;7.060;2023-05-21T09:58:26;76145.81;;;-145.94;51.99
6208;BME280;3137;51.550;7.060;2023-05-21T10:00:53;76143.78;;;-145.94;52.83
6208;BME280;3137;51.550;7.060;2023-05-21T10:03:22;76125.44;;;-145.94;53.93
6208;BME280;3137;51.550;7.060;2023-05-21T10:05:50;76125.44;;;-145.94;52.49
6208;BME280;3137;51.550;7.060;2023-05-21T10:08:20;76135.63;;;-145.94;52.59
6208;BME280;3137;51.550;7.060;2023-05-21T10:10:48;76113.19;;;-145.94;52.44
6208;BME280;3137;51.550;7.060;2023-05-21T10:13:17;76096.88;;;-145.94;52.78
6208;BME280;3137;51.550;7.060;2023-05-21T10:15:45;76105.03;;;-145.94;52.30
6208;BME280;3137;51.550;7.060;2023-05-21T10:18:17;76090.78;;;-145.94;51.84
6208;BME280;3137;51.550;7.060;2023-05-21T10:20:44;76080.56;;;-145.94;51.66
6208;BME280;3137;51.550;7.060;2023-05-21T10:23:11;76070.38;;;-145.94;52.06
6208;BME280;3137;51.550;7.060;2023-05-21T10:25:38;76039.81;;;-145.94;52.90
6208;BME280;3137;51.550;7.060;2023-05-21T10:28:05;76029.59;;;-145.94;52.34
6208;BME280;3137;51.550;7.060;2023-05-21T10:30:33;76025.53;;;-145.94;51.62
6208;BME280;3137;51.550;7.060;2023-05-21T10:33:00;76017.38;;;-145.94;51.93
6208;BME280;3137;51.550;7.060;2023-05-21T10:35:28;76013.28;;;-145.94;51.08
6208;BME280;3137;51.550;7.060;2023-05-21T10:37:56;76007.19;;;-145.94;51.02
6208;BME280;3137;51.550;7.060;2023-05-21T10:40:23;76007.19;;;-145.94;51.29
6208;BME280;3137;51.550;7.060;2023-05-21T10:46:09;75990.88;;;-145.94;52.04
6208;BME280;3137;51.550;7.060;2023-05-21T10:49:03;75986.78;;;-145.94;51.50
6208;BME280;3137;51.550;7.060;2023-05-21T10:52:16;75990.88;;;-145.94;51.64
6208;BME280;3137;51.550;7.060;2023-05-21T10:54:56;75976.59;;;-145.94;51.91
6208;BME280;3137;51.550;7.060;2023-05-21T11:00:14;75956.22;;;-145.94;51.50
6208;BME280;3137;51.550;7.060;2023-05-21T11:02:43;75956.22;;;-145.94;51.14
6208;BME280;3137;51.550;7.060;2023-05-21T11:05:11;75933.78;;;-145.94;50.92
6208;BME280;3137;51.550;7.060;2023-05-21T11:07:57;75929.72;;;-145.94;51.44
6208;BME280;3137;51.550;7.060;2023-05-21T11:10:37;75911.38;;;-145.94;51.01
6208;BME280;3137;51.550;7.060;2023-05-21T11:13:06;75917.47;;;-145.94;50.88
6208;BME280;3137;51.550;7.060;2023-05-21T11:21:13;75899.13;;;-145.94;50.37
6208;BME280;3137;51.550;7.060;2023-05-21T11:23:58;75905.25;;;-145.94;50.32
6208;BME280;3137;51.550;7.060;2023-05-21T11:29:17;75931.75;;;-145.94;50.27
6208;BME280;3137;51.550;7.060;2023-05-21T11:31:46;75915.44;;;-145.94;50.77
6208;BME280;3137;51.550;7.060;2023-05-21T11:34:21;75919.50;;;-145.94;51.08
6208;BME280;3137;51.550;7.060;2023-05-21T11:39:45;75935.81;;;-145.94;50.39
6208;BME280;3137;51.550;7.060;2023-05-21T11:42:13;75939.91;;;-145.94;51.71
6208;BME280;3137;51.550;7.060;2023-05-21T11:44:55;75933.78;;;-145.94;51.35
6208;BME280;3137;51.550;7.060;2023-05-21T11:47:22;75929.72;;;-145.94;51.38
6208;BME280;3137;51.550;7.060;2023-05-21T11:49:49;75927.66;;;-145.94;51.13
6208;BME280;3137;51.550;7.060;2023-05-21T11:52:16;75925.63;;;-145.94;50.73
6208;BME280;3137;51.550;7.060;2023-05-21T11:54:46;75917.47;;;-145.94;50.60
6208;BME280;3137;51.550;7.060;2023-05-21T11:57:17;75923.59;;;-145.94;50.32
6208;BME280;3137;51.550;7.060;2023-05-21T11:59:45;75925.63;;;-145.94;50.61
6208;BME280;3137;51.550;7.060;2023-05-21T12:02:18;75931.75;;;-145.94;51.18
6208;BME280;3137;51.550;7.060;2023-05-21T12:04:46;75925.63;;;-145.94;50.28
6208;BME280;3137;51.550;7.060;2023-05-21T12:07:15;75927.66;;;-145.94;50.31
6208;BME280;3137;51.550;7.060;2023-05-21T12:09:49;75935.81;;;-145.94;50.55
6208;BME280;3137;51.550;7.060;2023-05-21T12:12:18;75923.59;;;-145.94;50.69
6208;BME280;3137;51.550;7.060;2023-05-21T12:14:46;75919.50;;;-145.94;51.11
6208;BME280;3137;51.550;7.060;2023-05-21T12:17:17;75925.63;;;-145.94;51.14
6208;BME280;3137;51.550;7.060;2023-05-21T12:19:45;75931.75;;;-145.94;50.79
6208;BME280;3137;51.550;7.060;2023-05-21T12:22:12;75923.59;;;-145.94;50.53
6208;BME280;3137;51.550;7.060;2023-05-21T12:24:38;75919.50;;;-145.94;51.30
6208;BME280;3137;51.550;7.060;2023-05-21T12:27:06;75935.81;;;-145.94;51.11
6208;BME280;3137;51.550;7.060;2023-05-21T12:29:46;75925.63;;;-145.94;51.77
6208;BME280;3137;51.550;7.060;2023-05-21T12:32:14;75913.41;;;-145.94;51.58
6208;BME280;3137;51.550;7.060;2023-05-21T12:34:45;75897.09;;;-145.94;51.97
6208;BME280;3137;51.550;7.060;2023-05-21T12:37:25;75893.00;;;-145.94;51.19
6208;BME280;3137;51.550;7.060;2023-05-21T12:39:54;75874.66;;;-145.94;51.73
6208;BME280;3137;51.550;7.060;2023-05-21T12:42:28;75870.59;;;-145.94;50.68
6208;BME280;3137;51.550;7.060;2023-05-21T12:45:06;75860.41;;;-145.94;51.74
6208;BME280;3137;51.550;7.060;2023-05-21T12:47:33;75850.19;;;-145.94;51.83
6208;BME280;3137;51.550;7.060;2023-05-21T12:50:01;75852.25;;;-145.94;50.62
6208;BME280;3137;51.550;7.060;2023-05-21T12:52:28;75835.94;;;-145.94;51.33
6208;BME280;3137;51.550;7.060;2023-05-21T12:54:58;75823.69;;;-145.94;50.42
6208;BME280;3137;51.550;7.060;2023-05-21T12:57:35;75819.63;;;-145.94;50.82
6208;BME280;3137;51.550;7.060;2023-05-21T13:00:05;75813.50;;;-145.94;50.78
6208;BME280;3137;51.550;7.060;2023-05-21T13:02:39;75813.50;;;-145.94;50.42
6208;BME280;3137;51.550;7.060;2023-05-21T13:05:08;75821.66;;;-145.94;50.58
6208;BME280;3137;51.550;7.060;2023-05-21T13:07:37;75813.50;;;-145.94;50.68
6208;BME280;3137;51.550;7.060;2023-05-21T13:10:04;75799.22;;;-145.94;50.55
6208;BME280;3137;51.550;7.060;2023-05-21T13:12:32;75782.94;;;-145.94;50.52
6208;BME280;3137;51.550;7.060;2023-05-21T13:15:00;75776.81;;;-145.94;50.86
6208;BME280;3137;51.550;7.060;2023-05-21T13:17:27;75762.53;;;-145.94;49.70
6208;BME280;3137;51.550;7.060;2023-05-21T13:20:14;75760.50;;;-145.94;50.33
6208;BME280;3137;51.550;7.060;2023-05-21T13:22:43;75764.56;;;-145.94;49.83
6208;BME280;3137;51.550;7.060;2023-05-21T13:25:16;75756.41;;;-145.94;49.51
6208;BME280;3137;51.550;7.060;2023-05-21T13:27:44;75746.22;;;-145.94;48.95
6208;BME280;3137;51.550;7.060;2023-05-21T13:30:10;75746.22;;;-145.94;49.49